Middleburg, Virginia
Current Conditions -  °F | °C
As of 11:15 PM on Monday 22 Dec 2014 (Local Time) from KJYO Reporting Station
Unknown Precip Unknown Precip  
Wind Chill: 34°   Ceiling: 300
Heat Index: 34°   Visibility: 1.5mi
Dew Point: 34°   Wind: 0mph
Humidity: 100%   Direction: NA
Pressure: 30.11"   Gusts: NA
Location:  38.97°N, 77.74°W
Report Text: KJYO 230415Z AUTO 00000KT 1 1/2SM UP OVC003 01/01 A3011 RMK AO2 P0002
Loading
Personal Weather Stations






























Interactive Weather Map New forecast layout! Learn more

10-Day Weather Forecast

Advertisements
Track Severe Weather on mobile